Time;durP1;ratioP1;P1;durP2;ratioP2;P2;SDS_P1;SDS_P2;PMS_P1;PMS_P2;Temp;Humidity;BMP_temperature;BMP_pressure;BME280_temperature;BME280_humidity;BME280_pressure;Samples;Min_cycle;Max_cycle;Signal;HPM_P1;HPM_P2
2021/12/05 00:21:41;;;;;;;4.93;1.40;;;5.70;91.60;;;;;;5033327;28;20560;-75
2021/12/05 00:24:18;;;;;;;7.68;1.58;;;5.70;91.70;;;;;;5026554;28;20400;-75
2021/12/05 00:26:50;;;;;;;6.78;2.05;;;5.70;91.80;;;;;;5038556;28;20025;-77
2021/12/05 00:55:50;;;;;;;6.60;1.42;;;5.80;92.10;;;;;;5038169;28;20029;-80
2021/12/05 01:01:13;;;;;;;4.72;1.92;;;5.70;91.70;;;;;;5037636;28;20051;-80
2021/12/05 01:07:05;;;;;;;7.88;2.90;;;5.80;91.90;;;;;;5038190;28;20052;-84
2021/12/05 01:15:24;;;;;;;8.90;2.80;;;5.60;92.00;;;;;;5036934;28;20057;-84
2021/12/05 01:17:30;;;;;;;7.15;2.00;;;5.50;92.10;;;;;;5035982;28;20515;-76
2021/12/05 01:19:57;;;;;;;8.80;1.60;;;5.50;92.30;;;;;;5036608;28;20021;-79
2021/12/05 01:22:28;;;;;;;14.43;2.70;;;5.40;92.30;;;;;;5036093;28;20394;-82
2021/12/05 01:30:10;;;;;;;6.32;1.73;;;5.40;92.20;;;;;;5036309;28;20167;-77
2021/12/05 01:56:57;;;;;;;8.73;1.67;;;5.00;92.90;;;;;;5036640;28;20108;-82
2021/12/05 02:39:37;;;;;;;5.50;1.40;;;5.30;93.20;;;;;;5036599;28;20072;-70
2021/12/05 02:42:11;;;;;;;5.38;1.38;;;5.30;93.20;;;;;;5036702;28;20029;-69
2021/12/05 02:44:38;;;;;;;7.60;1.67;;;5.30;93.20;;;;;;5036633;28;20113;-72
2021/12/05 02:47:13;;;;;;;3.53;1.23;;;5.30;93.20;;;;;;5036673;28;20097;-71
2021/12/05 02:49:43;;;;;;;5.65;1.05;;;5.40;93.20;;;;;;5035831;28;20018;-72
2021/12/05 02:52:21;;;;;;;4.75;1.30;;;5.40;93.20;;;;;;5026947;28;20499;-72
2021/12/05 02:54:51;;;;;;;9.60;2.40;;;5.40;93.20;;;;;;5035430;28;20052;-72
2021/12/05 02:57:28;;;;;;;9.32;2.28;;;5.30;93.00;;;;;;5035264;28;20103;-72
2021/12/05 02:59:57;;;;;;;9.35;2.83;;;5.40;93.10;;;;;;5038124;28;20033;-73
2021/12/05 03:02:37;;;;;;;8.52;3.45;;;5.40;93.10;;;;;;5039224;28;20400;-71
2021/12/05 03:05:07;;;;;;;10.90;2.90;;;5.40;93.20;;;;;;5039960;28;20079;-69
2021/12/05 03:07:38;;;;;;;6.40;2.92;;;5.50;93.30;;;;;;5039896;28;20021;-69
2021/12/05 03:10:05;;;;;;;7.28;1.73;;;5.60;93.00;;;;;;5039966;28;20022;-68
2021/12/05 03:12:34;;;;;;;5.35;2.08;;;5.70;92.70;;;;;;5039889;28;20033;-77
2021/12/05 03:15:04;;;;;;;4.22;1.15;;;5.70;92.50;;;;;;5040445;28;20032;-77
2021/12/05 03:17:30;;;;;;;5.35;1.52;;;5.60;92.30;;;;;;5040057;28;20064;-77
2021/12/05 03:19:56;;;;;;;2.38;1.10;;;5.60;92.10;;;;;;5039320;28;20025;-76
2021/12/05 03:22:22;;;;;;;4.78;1.33;;;5.60;92.00;;;;;;5034123;28;20022;-74
2021/12/05 03:24:48;;;;;;;4.95;1.38;;;5.60;92.00;;;;;;5039959;28;20061;-75
2021/12/05 03:27:14;;;;;;;5.15;1.33;;;5.50;92.10;;;;;;5040013;28;20096;-73
2021/12/05 03:29:40;;;;;;;4.80;1.20;;;5.50;92.10;;;;;;5040349;28;20029;-73
2021/12/05 03:32:07;;;;;;;5.15;1.75;;;5.40;92.10;;;;;;5040137;28;20056;-72
2021/12/05 03:34:33;;;;;;;8.10;1.88;;;5.40;92.20;;;;;;5040392;28;20099;-77
2021/12/05 03:37:00;;;;;;;3.42;1.00;;;5.40;92.20;;;;;;5040082;28;20131;-80
2021/12/05 03:39:26;;;;;;;5.75;1.17;;;5.40;92.10;;;;;;5039285;28;20046;-74
2021/12/05 03:41:53;;;;;;;4.47;1.35;;;5.30;92.00;;;;;;5039875;28;20480;-76
2021/12/05 03:44:23;;;;;;;5.85;1.30;;;5.30;92.20;;;;;;5038247;28;20116;-76
2021/12/05 03:46:50;;;;;;;6.80;1.35;;;5.30;92.30;;;;;;5039788;28;20014;-79
2021/12/05 03:49:16;;;;;;;8.65;1.63;;;5.30;92.40;;;;;;5039515;28;20361;-78
2021/12/05 03:51:55;;;;;;;7.85;1.40;;;5.20;92.40;;;;;;5039914;28;20022;-78
2021/12/05 03:54:21;;;;;;;6.40;1.60;;;5.20;92.40;;;;;;5039105;28;20036;-79
2021/12/05 03:56:48;;;;;;;5.15;1.40;;;5.20;92.50;;;;;;5036604;28;20037;-79
2021/12/05 03:59:15;;;;;;;11.32;1.90;;;5.10;92.60;;;;;;5038956;28;20080;-78
2021/12/05 04:01:41;;;;;;;6.63;1.48;;;5.10;92.70;;;;;;5038017;28;20495;-74
2021/12/05 04:04:09;;;;;;;7.93;1.67;;;5.10;92.80;;;;;;5038596;28;20450;-77
2021/12/05 04:06:36;;;;;;;4.72;1.40;;;5.00;92.80;;;;;;5039272;28;20044;-78
2021/12/05 04:09:06;;;;;;;5.30;1.30;;;5.00;92.90;;;;;;5039429;28;20141;-76
2021/12/05 04:11:37;;;;;;;4.65;1.30;;;5.00;92.90;;;;;;5038266;28;20041;-77
2021/12/05 04:14:10;;;;;;;7.90;1.90;;;5.00;93.00;;;;;;5039340;28;20037;-78
2021/12/05 04:16:36;;;;;;;6.53;1.55;;;5.00;93.00;;;;;;5039204;28;20025;-78
2021/12/05 04:19:03;;;;;;;7.35;1.60;;;5.00;93.10;;;;;;5039164;28;20034;-78
2021/12/05 04:21:30;;;;;;;5.10;1.50;;;5.00;93.10;;;;;;5038895;28;20025;-78
2021/12/05 04:23:58;;;;;;;5.30;1.73;;;4.90;93.10;;;;;;5029739;28;20055;-78
2021/12/05 04:26:24;;;;;;;8.35;2.65;;;4.90;93.10;;;;;;5038583;28;20105;-78
2021/12/05 04:28:52;;;;;;;9.25;1.70;;;4.90;93.20;;;;;;5039000;28;20446;-78
2021/12/05 04:31:20;;;;;;;6.15;1.65;;;4.90;93.10;;;;;;5038790;28;20017;-78
2021/12/05 04:33:47;;;;;;;10.55;1.60;;;4.90;93.10;;;;;;5038796;28;20033;-78
2021/12/05 04:36:13;;;;;;;8.93;1.60;;;4.80;93.10;;;;;;5038747;28;20048;-78
2021/12/05 04:38:39;;;;;;;9.38;1.85;;;4.80;93.10;;;;;;5038869;28;20451;-79
2021/12/05 04:41:06;;;;;;;4.28;1.35;;;4.80;93.30;;;;;;5038413;28;20574;-79
2021/12/05 04:43:37;;;;;;;3.10;1.20;;;4.80;93.40;;;;;;5038703;28;20034;-79
2021/12/05 04:46:10;;;;;;;8.30;1.70;;;4.80;93.40;;;;;;5037879;28;20013;-79
2021/12/05 04:48:36;;;;;;;;;;;4.80;93.40;;;;;;5038299;28;20037;-78
2021/12/05 04:51:03;;;;;;;8.15;1.73;;;4.80;93.50;;;;;;5037072;28;19927;-79
2021/12/05 04:53:29;;;;;;;8.27;1.50;;;4.70;93.40;;;;;;5037389;28;20052;-78
2021/12/05 04:55:56;;;;;;;5.82;1.70;;;4.70;93.40;;;;;;5037924;28;20503;-79
2021/12/05 04:58:24;;;;;;;7.40;2.25;;;4.70;93.50;;;;;;5038559;28;20065;-76
2021/12/05 05:00:51;;;;;;;9.65;1.75;;;4.70;93.50;;;;;;5037593;28;20033;-76
2021/12/05 05:03:17;;;;;;;7.18;2.40;;;4.60;93.50;;;;;;5037803;28;20033;-77
2021/12/05 05:05:50;;;;;;;4.13;1.50;;;4.60;93.60;;;;;;5037976;28;20029;-76
2021/12/05 05:08:17;;;;;;;7.97;1.63;;;4.60;93.60;;;;;;5038193;28;20089;-76
2021/12/05 05:10:43;;;;;;;8.10;1.70;;;4.50;93.60;;;;;;5037541;28;20025;-76
2021/12/05 05:13:09;;;;;;;9.55;2.65;;;4.50;93.60;;;;;;5037570;28;20020;-76
2021/12/05 05:15:35;;;;;;;7.72;1.48;;;4.50;93.70;;;;;;5036335;28;20116;-74
2021/12/05 05:18:04;;;;;;;6.78;1.77;;;4.40;93.70;;;;;;5036984;28;20028;-76
2021/12/05 05:20:42;;;;;;;5.47;1.60;;;4.40;93.90;;;;;;5037474;28;20492;-77
2021/12/05 05:39:11;;;;;;;5.60;1.95;;;4.30;93.90;;;;;;5037771;28;20024;-77
2021/12/05 05:45:18;;;;;;;11.27;1.98;;;4.50;94.10;;;;;;5036693;28;20036;-77
2021/12/05 05:47:37;;;;;;;13.68;3.88;;;4.50;94.50;;;;;;5031687;28;20037;-77
2021/12/05 05:50:04;;;;;;;12.20;2.55;;;4.60;94.50;;;;;;5036078;28;20021;-77
2021/12/05 05:52:31;;;;;;;7.65;1.90;;;4.70;94.50;;;;;;5035697;28;20026;-77
2021/12/05 05:54:59;;;;;;;6.05;1.58;;;4.70;94.30;;;;;;5036570;28;20378;-76
2021/12/05 05:57:32;;;;;;;9.57;1.58;;;4.60;94.20;;;;;;5037530;28;20038;-76
2021/12/05 06:00:17;;;;;;;;;;;4.60;94.10;;;;;;5037540;28;20034;-76
2021/12/05 06:05:30;;;;;;;6.97;2.17;;;4.60;94.10;;;;;;5037302;28;20491;-77
2021/12/05 06:07:56;;;;;;;6.63;1.45;;;4.60;94.10;;;;;;5037038;28;20022;-77
2021/12/05 06:10:26;;;;;;;8.25;1.90;;;4.60;94.20;;;;;;5037041;28;20025;-77
2021/12/05 06:12:52;;;;;;;5.82;1.52;;;4.50;94.20;;;;;;5035847;28;20025;-77
2021/12/05 06:15:20;;;;;;;6.88;1.58;;;4.50;94.30;;;;;;5035788;28;20021;-77
2021/12/05 06:17:46;;;;;;;7.80;1.90;;;4.50;94.40;;;;;;5036984;28;20026;-77
2021/12/05 06:20:16;;;;;;;10.85;2.15;;;4.50;94.40;;;;;;5034970;28;20488;-77
2021/12/05 06:22:42;;;;;;;9.32;2.10;;;4.50;94.50;;;;;;5030716;28;20112;-77
2021/12/05 06:25:12;;;;;;;10.20;2.60;;;4.50;94.80;;;;;;5035216;28;20120;-77
2021/12/05 06:27:38;;;;;;;11.05;2.60;;;4.50;94.60;;;;;;5034952;28;20078;-77
2021/12/05 06:30:16;;;;;;;10.32;2.00;;;4.50;94.50;;;;;;5036705;28;20033;-77
2021/12/05 06:46:22;;;;;;;8.52;1.90;;;4.60;94.90;;;;;;5040228;28;20171;-76
2021/12/05 06:48:49;;;;;;;6.43;2.20;;;4.70;94.90;;;;;;5029793;28;20049;-76
2021/12/05 06:51:19;;;;;;;9.93;1.95;;;4.70;95.00;;;;;;5040667;28;20028;-77
2021/12/05 06:53:45;;;;;;;7.03;1.85;;;4.70;95.10;;;;;;5039873;28;20013;-77
2021/12/05 06:56:11;;;;;;;6.30;1.75;;;4.80;95.10;;;;;;5040383;28;20036;-77
2021/12/05 06:58:37;;;;;;;9.07;3.22;;;4.80;95.00;;;;;;5039236;28;20029;-77
2021/12/05 07:01:08;;;;;;;6.75;2.28;;;4.70;94.90;;;;;;5038934;28;20030;-77
2021/12/05 07:03:36;;;;;;;8.43;2.00;;;4.70;94.90;;;;;;5039739;28;20044;-77
2021/12/05 07:06:08;;;;;;;11.10;3.53;;;4.70;95.00;;;;;;5040258;28;20033;-77
2021/12/05 07:08:37;;;;;;;8.63;1.92;;;4.60;95.10;;;;;;5029955;28;20068;-77
2021/12/05 07:11:21;;;;;;;8.90;2.40;;;4.70;95.20;;;;;;5040148;28;20460;-76
2021/12/05 07:16:27;;;;;;;9.32;2.30;;;4.70;95.30;;;;;;5039911;28;20088;-76
2021/12/05 07:24:13;;;;;;;10.40;2.43;;;4.70;95.40;;;;;;5039089;28;20499;-76
2021/12/05 07:43:08;;;;;;;11.85;2.28;;;4.50;95.40;;;;;;5027292;28;20041;-77
2021/12/05 07:45:51;;;;;;;9.55;2.67;;;4.50;95.40;;;;;;5037615;28;20021;-77
2021/12/05 07:48:25;;;;;;;;;;;4.50;95.30;;;;;;5039287;28;20026;-76
2021/12/05 07:53:36;;;;;;;11.45;2.53;;;4.40;95.30;;;;;;5039831;28;20083;-76
2021/12/05 07:56:10;;;;;;;7.00;2.00;;;4.50;95.30;;;;;;5039422;28;20117;-77
2021/12/05 08:14:42;;;;;;;11.45;2.33;;;4.50;95.10;;;;;;5039921;28;20031;-72
2021/12/05 08:17:16;;;;;;;13.93;2.83;;;4.60;95.00;;;;;;5039136;28;20036;-77
2021/12/05 08:19:42;;;;;;;11.05;2.80;;;4.60;94.90;;;;;;5039441;28;20022;-78
2021/12/05 08:22:08;;;;;;;9.68;2.72;;;4.70;94.90;;;;;;5045799;28;20090;-78
2021/12/05 08:24:36;;;;;;;16.58;3.55;;;4.70;94.90;;;;;;5037311;28;20026;-77
2021/12/05 08:27:05;;;;;;;13.88;3.80;;;4.70;94.90;;;;;;5038100;28;20079;-77
2021/12/05 08:29:40;;;;;;;20.23;2.97;;;4.70;94.90;;;;;;5038770;28;20456;-78
2021/12/05 08:32:18;;;;;;;12.13;2.25;;;4.80;94.90;;;;;;5038706;28;20163;-78
2021/12/05 08:35:15;;;;;;;13.20;3.30;;;4.80;94.90;;;;;;5037316;28;20029;-77
2021/12/05 08:45:56;;;;;;;10.73;2.63;;;5.20;94.80;;;;;;5037902;28;20404;-77
2021/12/05 10:02:11;;;;;;;18.60;4.22;;;8.40;90.70;;;;;;5049076;28;20035;-77
2021/12/05 10:07:34;;;;;;;8.80;2.30;;;9.10;89.00;;;;;;5030468;28;20471;-77
2021/12/05 10:38:31;;;;;;;18.23;5.50;;;11.50;77.60;;;;;;5015855;28;20113;-75
2021/12/05 10:41:16;;;;;;;14.85;3.38;;;11.70;77.00;;;;;;5034208;28;20080;-75
2021/12/05 10:43:46;;;;;;;13.35;3.63;;;12.00;75.30;;;;;;5036925;28;20034;-75
2021/12/05 10:46:16;;;;;;;17.58;4.70;;;12.00;73.60;;;;;;5035643;28;20113;-75
2021/12/05 10:48:52;;;;;;;15.95;4.43;;;12.20;73.50;;;;;;5037598;28;20464;-75
2021/12/05 10:51:21;;;;;;;15.18;4.22;;;12.30;73.30;;;;;;5037165;28;20380;-75
2021/12/05 10:53:50;;;;;;;15.68;4.03;;;12.50;73.00;;;;;;5036725;28;20025;-75
2021/12/05 10:56:28;;;;;;;11.50;3.63;;;12.40;73.30;;;;;;5036654;28;20396;-75
2021/12/05 10:59:14;;;;;;;18.13;5.65;;;12.20;74.00;;;;;;5039890;28;20400;-76
2021/12/05 11:01:58;;;;;;;13.73;4.05;;;12.10;72.20;;;;;;5036858;28;20550;-76
2021/12/05 11:04:35;;;;;;;14.82;4.28;;;11.90;71.40;;;;;;5036703;28;20052;-75
2021/12/05 11:07:12;;;;;;;19.88;3.92;;;11.60;71.60;;;;;;5023754;28;20018;-75
2021/12/05 11:09:45;;;;;;;15.52;4.05;;;11.40;75.00;;;;;;5041142;28;20038;-75
2021/12/05 11:12:14;;;;;;;17.73;4.03;;;11.40;74.20;;;;;;5036952;28;20040;-75
2021/12/05 11:14:42;;;;;;;16.90;3.80;;;11.50;74.60;;;;;;5038886;28;20428;-76
2021/12/05 11:17:41;;;;;;;14.10;3.33;;;11.60;73.10;;;;;;5039420;28;20080;-76
2021/12/05 11:20:13;;;;;;;9.10;3.30;;;11.50;72.20;;;;;;5036661;28;20037;-76
2021/12/05 11:22:45;;;;;;;12.70;2.97;;;11.30;72.80;;;;;;5028152;28;20400;-79
2021/12/05 11:25:18;;;;;;;13.18;3.05;;;11.10;73.30;;;;;;5039947;28;20034;-79
2021/12/05 11:27:53;;;;;;;14.55;4.47;;;11.00;73.50;;;;;;5040087;28;20081;-79
2021/12/05 11:30:26;;;;;;;19.73;7.80;;;10.80;74.60;;;;;;5039072;28;20033;-78
2021/12/05 11:33:13;;;;;;;22.73;6.15;;;10.80;74.90;;;;;;5039657;28;20026;-80
2021/12/05 11:35:56;;;;;;;20.45;6.13;;;10.60;74.80;;;;;;5038181;28;20463;-79
2021/12/05 11:38:25;;;;;;;14.68;5.55;;;10.50;74.40;;;;;;5023931;28;20404;-73
2021/12/05 11:41:03;;;;;;;10.48;3.60;;;10.40;73.10;;;;;;5024971;28;20455;-73
2021/12/05 11:43:35;;;;;;;13.68;3.72;;;10.40;74.70;;;;;;5037275;28;20072;-75
2021/12/05 11:46:12;;;;;;;17.95;3.60;;;10.30;73.80;;;;;;5031044;28;20042;-74
2021/12/05 11:48:45;;;;;;;16.55;3.80;;;10.30;74.30;;;;;;5039638;28;20032;-79
2021/12/05 11:51:25;;;;;;;22.23;5.25;;;10.40;75.20;;;;;;5037851;28;20025;-78
2021/12/05 11:53:56;;;;;;;27.77;4.35;;;10.60;76.20;;;;;;5032877;28;20026;-71
2021/12/05 11:56:32;;;;;;;17.10;4.15;;;10.90;76.30;;;;;;5037732;28;20461;-71
2021/12/05 11:59:20;;;;;;;17.42;4.50;;;11.10;75.10;;;;;;5036290;28;20026;-72
2021/12/05 12:01:59;;;;;;;17.20;4.55;;;11.20;75.90;;;;;;5057455;28;20037;-82
2021/12/05 12:04:46;;;;;;;17.95;7.80;;;11.20;74.00;;;;;;5038428;28;20025;-82
2021/12/05 12:07:20;;;;;;;13.25;3.00;;;11.00;72.80;;;;;;5021309;28;20029;-83
2021/12/05 12:09:50;;;;;;;17.67;3.70;;;10.90;74.40;;;;;;5026655;28;20032;-81
2021/12/05 12:12:17;;;;;;;12.18;4.38;;;11.00;72.60;;;;;;5035520;28;20485;-76
2021/12/05 12:14:43;;;;;;;19.95;5.75;;;11.20;71.70;;;;;;5039480;28;20536;-78
2021/12/05 12:17:16;;;;;;;18.98;4.50;;;11.50;70.90;;;;;;5038865;28;20044;-79
2021/12/05 12:19:43;;;;;;;26.13;3.83;;;11.70;73.30;;;;;;5038530;28;20022;-76
2021/12/05 12:22:09;;;;;;;12.30;3.03;;;11.80;70.60;;;;;;5036060;28;20036;-74
2021/12/05 12:24:39;;;;;;;10.95;3.45;;;11.70;72.60;;;;;;5038753;28;20028;-76
2021/12/05 12:27:07;;;;;;;12.80;3.33;;;11.40;72.90;;;;;;5038973;28;20053;-78
2021/12/05 12:29:34;;;;;;;9.27;3.10;;;11.00;73.20;;;;;;5039354;28;20014;-79
2021/12/05 12:32:10;;;;;;;13.80;2.92;;;10.80;74.00;;;;;;5038234;28;20033;-78
2021/12/05 12:34:37;;;;;;;9.80;3.00;;;10.60;75.10;;;;;;5038868;28;20052;-77
2021/12/05 12:37:03;;;;;;;19.67;6.70;;;10.40;75.50;;;;;;5038818;28;20034;-76
2021/12/05 12:39:35;;;;;;;16.92;4.25;;;10.30;75.20;;;;;;5038018;28;20077;-76
2021/12/05 12:42:13;;;;;;;12.20;4.33;;;10.30;75.70;;;;;;5038334;28;20053;-77
2021/12/05 12:44:59;;;;;;;13.98;3.53;;;10.30;75.40;;;;;;5034506;28;20363;-77
2021/12/05 12:47:33;;;;;;;13.88;4.32;;;10.40;76.60;;;;;;5028255;28;20028;-76
2021/12/05 12:50:29;;;;;;;15.63;4.15;;;10.60;76.50;;;;;;5038544;28;20492;-75
2021/12/05 12:52:59;;;;;;;19.00;5.28;;;10.80;76.20;;;;;;5038573;28;20021;-75
2021/12/05 12:55:36;;;;;;;20.33;7.18;;;11.00;74.60;;;;;;5025552;28;20033;-76
2021/12/05 12:58:06;;;;;;;22.88;8.10;;;11.10;74.60;;;;;;5037367;28;20022;-76
2021/12/05 13:00:36;;;;;;;24.88;8.73;;;11.30;75.60;;;;;;5037465;28;20036;-76
2021/12/05 13:03:25;;;;;;;20.13;6.28;;;11.50;75.30;;;;;;5038199;28;20021;-77
2021/12/05 13:07:17;;;;;;;17.90;6.97;;;11.60;73.60;;;;;;5038299;28;20033;-77
2021/12/05 13:11:48;;;;;;;15.52;4.07;;;11.80;73.30;;;;;;5025493;28;20079;-77
2021/12/05 13:14:14;;;;;;;17.73;4.55;;;11.60;71.90;;;;;;5037809;28;20052;-77
2021/12/05 13:16:44;;;;;;;14.10;5.35;;;11.50;71.10;;;;;;5027402;28;20082;-76
2021/12/05 13:19:19;;;;;;;14.40;5.55;;;11.50;73.00;;;;;;5037571;28;20037;-76
2021/12/05 13:21:49;;;;;;;21.13;6.07;;;11.50;72.80;;;;;;5027180;28;20097;-76
2021/12/05 13:24:30;;;;;;;28.15;10.75;;;11.60;73.30;;;;;;5032305;28;20448;-78
2021/12/05 13:27:04;;;;;;;17.55;5.55;;;11.70;72.60;;;;;;5037746;28;20045;-79
2021/12/05 13:29:38;;;;;;;22.25;6.13;;;11.70;72.60;;;;;;5036528;28;20032;-79
2021/12/05 13:32:13;;;;;;;17.42;5.28;;;11.60;70.50;;;;;;5037912;28;20092;-79
2021/12/05 13:34:44;;;;;;;15.45;5.45;;;11.60;71.00;;;;;;5034606;28;20479;-78
2021/12/05 13:37:10;;;;;;;18.70;5.53;;;11.60;72.60;;;;;;5037390;28;20026;-78
2021/12/05 13:39:52;;;;;;;11.95;4.30;;;11.60;72.80;;;;;;5035169;28;20462;-78
2021/12/05 13:42:22;;;;;;;17.92;5.53;;;11.50;71.60;;;;;;5028481;28;20087;-79
2021/12/05 13:45:04;;;;;;;16.80;4.30;;;11.40;71.60;;;;;;5036222;28;20033;-79
2021/12/05 13:47:41;;;;;;;25.38;6.22;;;11.20;72.50;;;;;;5037122;28;20416;-78
2021/12/05 13:50:21;;;;;;;22.13;7.00;;;11.00;72.80;;;;;;5033942;28;20412;-78
2021/12/05 13:53:02;;;;;;;26.13;6.60;;;11.00;73.30;;;;;;5037172;28;20056;-80
2021/12/05 13:56:02;;;;;;;23.23;6.45;;;10.90;73.30;;;;;;5037213;28;20369;-84
2021/12/05 13:58:40;;;;;;;33.38;8.68;;;10.80;74.00;;;;;;5028456;28;20020;-83
2021/12/05 14:01:18;;;;;;;22.40;5.72;;;10.80;74.70;;;;;;5037299;28;20026;-81
2021/12/05 14:03:53;;;;;;;25.63;6.47;;;10.70;74.20;;;;;;5037209;28;20028;-81
2021/12/05 14:07:01;;;;;;;34.05;9.20;;;10.60;73.50;;;;;;5037282;28;20025;-81
2021/12/05 14:09:35;;;;;;;48.17;10.70;;;10.50;74.20;;;;;;5025526;28;20043;-81
2021/12/05 14:12:27;;;;;;;58.35;14.40;;;10.50;74.80;;;;;;5037165;28;20400;-82
2021/12/05 14:15:00;;;;;;;51.35;13.55;;;10.50;75.00;;;;;;5037377;28;20032;-81
2021/12/05 14:17:32;;;;;;;27.73;7.90;;;10.50;74.70;;;;;;5037384;28;20504;-80
2021/12/05 14:20:02;;;;;;;15.35;5.18;;;10.40;74.70;;;;;;5035541;28;20067;-81
2021/12/05 14:22:32;;;;;;;12.18;4.72;;;10.30;74.10;;;;;;5030231;28;20040;-82
2021/12/05 14:25:01;;;;;;;11.70;3.85;;;10.30;74.40;;;;;;5036740;28;20499;-82
2021/12/05 14:27:32;;;;;;;11.07;2.70;;;10.20;74.80;;;;;;5030964;28;20508;-82
2021/12/05 14:29:59;;;;;;;9.00;2.95;;;10.20;75.80;;;;;;5034363;28;20104;-81
2021/12/05 14:32:34;;;;;;;16.63;4.82;;;10.10;76.50;;;;;;5037017;28;20030;-79
2021/12/05 14:35:01;;;;;;;13.18;4.25;;;10.00;76.90;;;;;;5036857;28;20429;-80
2021/12/05 14:37:33;;;;;;;14.07;4.55;;;9.90;76.70;;;;;;5036856;28;20025;-81
2021/12/05 14:40:12;;;;;;;14.05;4.38;;;9.80;76.90;;;;;;5035602;28;20083;-79
2021/12/05 14:42:41;;;;;;;15.65;7.10;;;9.60;77.30;;;;;;5036127;28;20079;-82
2021/12/05 14:45:37;;;;;;;17.08;7.40;;;9.60;77.30;;;;;;5036113;28;20033;-79
2021/12/05 14:48:07;;;;;;;12.75;4.30;;;9.40;77.30;;;;;;5025756;28;20048;-80
2021/12/05 14:50:34;;;;;;;10.27;4.00;;;9.30;77.50;;;;;;5036511;28;20017;-81
2021/12/05 14:53:05;;;;;;;11.35;3.83;;;9.30;77.80;;;;;;5036373;28;20025;-80
2021/12/05 14:55:34;;;;;;;11.07;3.67;;;9.20;77.80;;;;;;5029816;28;20519;-79
2021/12/05 14:58:07;;;;;;;12.68;4.07;;;9.10;77.70;;;;;;5040680;28;20104;-81
2021/12/05 15:00:47;;;;;;;11.88;3.05;;;9.10;78.20;;;;;;5040714;28;20885;-78
2021/12/05 15:03:21;;;;;;;12.50;2.60;;;9.10;78.10;;;;;;5040470;28;20400;-79
2021/12/05 15:05:54;;;;;;;9.00;2.13;;;9.10;78.10;;;;;;5034889;28;20033;-80
2021/12/05 15:08:24;;;;;;;14.77;2.60;;;9.00;78.50;;;;;;5027507;28;20026;-79
2021/12/05 15:10:57;;;;;;;13.48;3.17;;;9.00;78.60;;;;;;5039598;28;20444;-82
2021/12/05 15:13:23;;;;;;;12.10;4.63;;;9.00;78.70;;;;;;5038806;28;20092;-78
2021/12/05 15:15:49;;;;;;;11.60;3.72;;;9.00;79.10;;;;;;5039544;28;20520;-81
2021/12/05 15:18:17;;;;;;;10.85;2.63;;;9.00;79.60;;;;;;5041290;28;20021;-82
2021/12/05 15:20:46;;;;;;;13.80;3.72;;;9.00;79.90;;;;;;5041673;28;20021;-89
2021/12/05 15:23:14;;;;;;;15.52;6.15;;;9.00;79.40;;;;;;5035465;28;20025;-77
2021/12/05 15:25:42;;;;;;;18.55;4.60;;;8.90;79.40;;;;;;5033940;28;20384;-76
2021/12/05 15:28:10;;;;;;;12.80;3.45;;;8.90;79.60;;;;;;5038496;28;20021;-78
2021/12/05 15:30:38;;;;;;;14.38;3.75;;;8.80;79.70;;;;;;5040641;28;20021;-78
2021/12/05 15:33:09;;;;;;;11.30;2.63;;;8.80;79.60;;;;;;5038388;28;20025;-76
2021/12/05 15:35:35;;;;;;;17.75;6.68;;;8.80;79.40;;;;;;5039438;28;20040;-76
2021/12/05 15:38:03;;;;;;;28.38;12.40;;;8.80;79.80;;;;;;5039203;28;20045;-76
2021/12/05 15:40:31;;;;;;;29.42;12.63;;;8.80;80.30;;;;;;5038454;28;20055;-76
2021/12/05 15:43:07;;;;;;;20.90;8.20;;;8.80;80.50;;;;;;5040304;28;20029;-77
2021/12/05 15:45:34;;;;;;;14.40;4.97;;;8.80;80.50;;;;;;5039431;28;20080;-79
2021/12/05 15:48:01;;;;;;;23.85;5.38;;;8.80;80.10;;;;;;5037911;28;20021;-75
2021/12/05 15:50:32;;;;;;;15.23;4.85;;;8.70;80.10;;;;;;5040588;28;20072;-73
2021/12/05 15:53:03;;;;;;;24.95;8.68;;;8.70;80.00;;;;;;5044353;28;20017;-75
2021/12/05 15:55:47;;;;;;;23.15;8.38;;;8.70;80.00;;;;;;5048911;28;20027;-72
2021/12/05 15:58:42;;;;;;;33.63;11.43;;;8.60;80.20;;;;;;5033485;28;20021;-73
2021/12/05 16:01:14;;;;;;;52.90;13.45;;;8.60;80.00;;;;;;5034073;28;20435;-78
2021/12/05 16:03:42;;;;;;;44.47;14.52;;;8.60;79.80;;;;;;5038093;28;20030;-78
2021/12/05 16:06:09;;;;;;;58.38;21.05;;;8.60;78.40;;;;;;5037589;28;20072;-77
2021/12/05 16:08:35;;;;;;;41.65;13.02;;;8.60;77.80;;;;;;5038431;28;20423;-78
2021/12/05 16:11:09;;;;;;;29.95;11.40;;;8.60;77.50;;;;;;5032743;28;20036;-79
2021/12/05 16:13:38;;;;;;;42.83;11.98;;;8.60;76.80;;;;;;5033845;28;20105;-80
2021/12/05 16:16:11;;;;;;;53.22;18.73;;;8.60;76.70;;;;;;5032260;28;20026;-80
2021/12/05 16:18:38;;;;;;;;;;;8.60;76.70;;;;;;5037442;28;20433;-80
2021/12/05 16:21:18;;;;;;;33.85;12.50;;;8.60;76.90;;;;;;5036531;28;19932;-82
2021/12/05 16:23:45;;;;;;;49.30;17.23;;;8.60;76.90;;;;;;5036104;28;20029;-80
2021/12/05 16:26:20;;;;;;;21.35;9.63;;;8.60;77.00;;;;;;5038232;28;20128;-80
2021/12/05 16:28:49;;;;;;;18.05;9.55;;;8.60;76.20;;;;;;5038131;28;20491;-79
2021/12/05 16:31:25;;;;;;;20.58;9.80;;;8.60;76.40;;;;;;5032627;28;20054;-81
2021/12/05 16:33:58;;;;;;;16.08;8.32;;;8.70;76.50;;;;;;5037444;28;20025;-77
2021/12/05 16:36:42;;;;;;;18.85;8.80;;;8.70;76.20;;;;;;5038424;28;20026;-79
2021/12/05 16:39:12;;;;;;;20.48;7.38;;;8.70;76.10;;;;;;5033892;28;20397;-77
2021/12/05 16:41:53;;;;;;;25.77;10.85;;;8.70;76.50;;;;;;5038295;28;20022;-76
2021/12/05 16:44:22;;;;;;;25.63;10.73;;;8.70;77.30;;;;;;5038117;28;20080;-80
2021/12/05 16:47:08;;;;;;;23.52;9.82;;;8.60;77.20;;;;;;5035086;28;20037;-79
2021/12/05 16:49:37;;;;;;;21.33;9.63;;;8.60;76.40;;;;;;5037776;28;20026;-82
2021/12/05 16:52:08;;;;;;;28.55;13.95;;;8.60;76.90;;;;;;5037116;28;20017;-75
2021/12/05 16:54:42;;;;;;;24.27;10.75;;;8.60;76.70;;;;;;5035478;28;20029;-76
2021/12/05 16:57:12;;;;;;;35.67;13.48;;;8.60;76.40;;;;;;5036495;28;20459;-75
2021/12/05 16:59:43;;;;;;;28.77;10.00;;;8.60;76.60;;;;;;5038385;28;20473;-76
2021/12/05 17:02:25;;;;;;;37.00;17.15;;;8.60;76.70;;;;;;5038343;28;20021;-75
2021/12/05 17:05:23;;;;;;;52.77;26.10;;;8.60;76.80;;;;;;5025693;28;20025;-78
2021/12/05 17:08:12;;;;;;;55.33;21.30;;;8.60;77.00;;;;;;5031662;28;20072;-75
2021/12/05 17:10:48;;;;;;;33.45;17.25;;;8.60;76.50;;;;;;5032504;28;20021;-75
2021/12/05 17:13:21;;;;;;;21.63;10.20;;;8.60;75.70;;;;;;5037112;28;20480;-77
2021/12/05 17:15:54;;;;;;;16.30;9.40;;;8.60;75.00;;;;;;5037799;28;20068;-75
2021/12/05 17:18:58;;;;;;;17.40;8.10;;;8.70;74.70;;;;;;5037453;28;20052;-73
2021/12/05 17:21:24;;;;;;;22.50;9.07;;;8.60;75.00;;;;;;5016910;28;20057;-72
2021/12/05 17:24:00;;;;;;;20.77;9.23;;;8.60;75.70;;;;;;5034852;28;20450;-72
2021/12/05 17:26:37;;;;;;;12.13;7.30;;;8.60;76.50;;;;;;5036595;28;20075;-72
2021/12/05 17:29:12;;;;;;;19.20;7.00;;;8.60;75.00;;;;;;5037647;28;20022;-73
2021/12/05 17:31:42;;;;;;;17.88;6.80;;;8.60;75.30;;;;;;5037065;28;20033;-73
2021/12/05 17:34:18;;;;;;;19.65;10.25;;;8.60;76.00;;;;;;5035947;28;20476;-73
2021/12/05 17:36:52;;;;;;;21.08;6.28;;;8.60;75.70;;;;;;5036712;28;20045;-72
2021/12/05 17:39:20;;;;;;;14.88;7.28;;;8.60;76.10;;;;;;5037176;28;20041;-72
2021/12/05 17:41:49;;;;;;;15.93;7.20;;;8.60;76.10;;;;;;5037277;28;20079;-72
2021/12/05 17:44:18;;;;;;;26.80;11.70;;;8.60;75.10;;;;;;5035739;28;20033;-73
2021/12/05 17:46:46;;;;;;;29.08;13.05;;;8.60;75.00;;;;;;5036768;28;20026;-74
2021/12/05 17:49:15;;;;;;;59.45;25.10;;;8.60;75.90;;;;;;5036896;28;20041;-75
2021/12/05 17:51:42;;;;;;;24.45;11.65;;;8.60;76.00;;;;;;5036684;28;20029;-76
2021/12/05 17:54:12;;;;;;;27.40;10.75;;;8.60;75.90;;;;;;5036616;28;20041;-72
2021/12/05 17:56:43;;;;;;;27.90;13.02;;;8.60;75.70;;;;;;5035436;28;20029;-74
2021/12/05 17:59:46;;;;;;;37.63;19.38;;;8.60;76.20;;;;;;5036837;28;20579;-72
2021/12/05 18:04:58;;;;;;;31.38;13.73;;;8.60;76.70;;;;;;5017935;28;20032;-70
2021/12/05 18:07:24;;;;;;;18.20;9.13;;;8.60;76.30;;;;;;5032611;28;20091;-69
2021/12/05 18:09:50;;;;;;;10.23;5.38;;;8.50;76.20;;;;;;5033932;28;20022;-70
2021/12/05 18:12:22;;;;;;;17.60;6.80;;;8.50;76.50;;;;;;5036091;28;20466;-70
2021/12/05 18:14:53;;;;;;;21.77;11.18;;;8.50;77.30;;;;;;5037069;28;20025;-71
2021/12/05 18:17:19;;;;;;;17.92;9.75;;;8.50;77.10;;;;;;5037374;28;20098;-71
2021/12/05 18:19:46;;;;;;;20.55;8.38;;;8.50;77.00;;;;;;5036895;28;20054;-71
2021/12/05 18:22:13;;;;;;;29.05;12.63;;;8.50;77.20;;;;;;5027470;28;20041;-71
2021/12/05 18:24:40;;;;;;;54.85;22.02;;;8.50;76.70;;;;;;5036395;28;20484;-68
2021/12/05 18:27:06;;;;;;;52.83;18.52;;;8.50;76.90;;;;;;5036490;28;20028;-71
2021/12/05 18:29:32;;;;;;;37.65;15.68;;;8.50;77.20;;;;;;5036945;28;20025;-71
2021/12/05 18:32:00;;;;;;;32.85;11.32;;;8.50;76.90;;;;;;5039523;28;20499;-72
2021/12/05 18:34:30;;;;;;;21.35;7.68;;;8.50;76.50;;;;;;5040573;28;20033;-70
2021/12/05 18:36:59;;;;;;;25.17;9.77;;;8.50;76.60;;;;;;5037001;28;20092;-72
2021/12/05 18:39:29;;;;;;;30.90;11.23;;;8.50;77.30;;;;;;5035826;28;20544;-73